Time;durP1;ratioP1;P1;durP2;ratioP2;P2;SDS_P1;SDS_P2;PMS_P1;PMS_P2;Temp;Humidity;BMP_temperature;BMP_pressure;BME280_temperature;BME280_humidity;BME280_pressure;Samples;Min_cycle;Max_cycle;Signal;HPM_P1;HPM_P2
2021/12/17 00:04:37;;;;;;;28.38;10.40;;;;;;;11.44;66.79;103480.22;4918513;28;120328;-83
2021/12/17 00:07:03;;;;;;;28.70;10.77;;;;;;;11.42;66.65;103471.56;4925565;28;125280;-83
2021/12/17 00:09:29;;;;;;;27.50;10.40;;;;;;;11.38;66.80;103463.31;4906622;28;121102;-84
2021/12/17 00:11:55;;;;;;;26.48;10.82;;;;;;;11.43;66.79;103462.16;4910874;28;120162;-83
2021/12/17 00:14:36;;;;;;;35.33;12.07;;;;;;;11.42;67.02;103461.38;4921863;28;120656;-85
2021/12/17 00:17:05;;;;;;;28.90;10.85;;;;;;;11.46;66.99;103456.66;4924935;28;119962;-86
2021/12/17 00:49:33;;;;;;;29.90;10.10;;;;;;;11.44;66.57;103433.50;4944065;28;119946;-84
2021/12/17 00:52:01;;;;;;;25.75;9.32;;;;;;;11.45;67.11;103435.84;4931065;28;120359;-82
2021/12/17 00:54:37;;;;;;;26.73;9.52;;;;;;;11.40;67.18;103422.50;4911671;28;120137;-85
2021/12/17 00:57:09;;;;;;;33.30;10.45;;;;;;;11.48;66.88;103440.56;4922053;28;122765;-82
2021/12/17 00:59:36;;;;;;;20.27;9.35;;;;;;;11.43;66.77;103440.94;4926591;28;120186;-83
2021/12/17 01:02:08;;;;;;;21.85;8.65;;;;;;;11.47;66.68;103435.47;4910448;28;122981;-82
2021/12/17 01:04:38;;;;;;;21.92;8.48;;;;;;;11.47;66.63;103430.75;4929339;28;120366;-84
2021/12/17 01:07:09;;;;;;;23.53;8.93;;;;;;;11.47;66.56;103436.25;4927799;28;120615;-84
2021/12/17 01:09:38;;;;;;;21.30;8.90;;;;;;;11.42;66.41;103433.88;4928601;28;121657;-84
2021/12/17 01:12:07;;;;;;;27.80;9.40;;;;;;;11.41;66.82;103432.31;4924147;28;121344;-83
2021/12/17 01:14:43;;;;;;;21.95;8.68;;;;;;;11.47;66.65;103441.75;4898560;28;120280;-83
2021/12/17 01:17:19;;;;;;;21.15;8.50;;;;;;;11.46;66.36;103442.13;4894909;28;123103;-84
2021/12/17 01:35:21;;;;;;;26.92;9.18;;;;;;;11.33;66.56;103447.19;4941082;28;120609;-83
2021/12/17 01:35:29;;;;;;;28.10;9.68;;;;;;;11.26;66.64;103436.19;4924621;28;123022;-84
2021/12/17 01:41:10;;;;;;;27.83;11.13;;;;;;;11.38;66.79;103460.56;4926636;28;121939;-82
2021/12/17 01:43:41;;;;;;;29.35;10.68;;;;;;;11.36;66.58;103476.69;4911716;28;119501;-84
2021/12/17 01:46:15;;;;;;;27.40;10.85;;;;;;;11.32;66.73;103456.59;4909569;28;121299;-84
2021/12/17 01:49:01;;;;;;;29.10;11.02;;;;;;;11.35;66.88;103453.09;4893061;28;123010;-82
2021/12/17 01:59:51;;;;;;;32.33;11.60;;;;;;;11.42;66.87;103439.38;4924863;28;120351;-85
2021/12/17 02:02:18;;;;;;;32.72;11.55;;;;;;;11.44;66.53;103442.53;4931634;28;119719;-85
2021/12/17 02:04:44;;;;;;;32.10;11.90;;;;;;;11.37;66.47;103431.53;4927752;28;119926;-84
2021/12/17 02:07:10;;;;;;;34.15;11.73;;;;;;;11.46;66.38;103437.41;4905115;28;122926;-85
2021/12/17 02:19:31;;;;;;;29.25;10.90;;;;;;;11.38;66.44;103449.59;4908853;28;121681;-85
2021/12/17 02:20:40;;;;;;;34.50;12.07;;;;;;;11.35;67.09;103442.88;4943499;28;120012;-83
2021/12/17 02:28:44;;;;;;;31.13;11.95;;;;;;;11.37;66.74;103443.31;4927894;28;119653;-85
2021/12/17 02:29:19;;;;;;;33.60;10.98;;;;;;;11.44;66.71;103431.53;4908979;28;120316;-85
2021/12/17 02:31:46;;;;;;;30.50;11.02;;;;;;;11.37;66.63;103423.28;4907571;28;123409;-85
2021/12/17 02:34:43;;;;;;;29.98;11.13;;;;;;;11.39;66.76;103429.16;4928256;28;120958;-85
2021/12/17 02:37:14;;;;;;;31.17;12.02;;;;;;;11.35;66.71;103420.09;4925930;28;121521;-83
2021/12/17 02:45:42;;;;;;;;;;;;;;;;;;;;;
2021/12/17 02:48:21;;;;;;;30.15;11.82;;;;;;;11.37;66.51;103423.28;4907681;28;123358;-87
2021/12/17 02:50:49;;;;;;;24.25;11.30;;;;;;;11.37;66.46;103415.03;4915363;28;119848;-85
2021/12/17 02:53:17;;;;;;;33.67;11.45;;;;;;;11.40;66.81;103418.97;4911449;28;122748;-84
2021/12/17 02:55:48;;;;;;;28.48;11.98;;;;;;;11.35;66.51;103411.84;4910536;28;119794;-83
2021/12/17 02:58:14;;;;;;;23.90;11.48;;;;;;;11.39;nan;103418.19;4924008;28;119756;-84
2021/12/17 03:00:42;;;;;;;24.63;10.35;;;;;;;11.32;65.98;103416.19;4927893;28;119848;-86
2021/12/17 03:03:09;;;;;;;23.30;9.93;;;;;;;11.27;66.45;103410.28;4928513;28;120597;-84
2021/12/17 03:05:39;;;;;;;22.50;10.52;;;;;;;11.24;66.26;103405.56;4943522;28;119844;-85
2021/12/17 03:08:07;;;;;;;20.67;10.13;;;;;;;11.22;66.50;103397.72;4926717;28;122533;-86
2021/12/17 03:10:32;;;;;;;17.95;9.20;;;;;;;11.23;66.43;103409.50;4910250;28;120915;-84
2021/12/17 03:13:02;;;;;;;25.38;10.07;;;;;;;11.33;66.77;103419.72;4912641;28;122262;-85
2021/12/17 03:26:04;;;;;;;16.23;8.50;;;;;;;11.37;66.71;103423.28;4924969;28;119859;-86
2021/12/17 03:28:32;;;;;;;17.02;8.15;;;;;;;11.36;66.49;103416.22;4927442;28;121630;-84
2021/12/17 03:31:01;;;;;;;17.20;8.25;;;;;;;11.35;66.52;103431.09;4925975;28;121005;-85
2021/12/17 03:33:40;;;;;;;18.30;8.20;;;;;;;11.32;66.03;103431.88;4899567;28;120760;-85
2021/12/17 03:36:06;;;;;;;14.57;6.72;;;;;;;11.26;65.96;103425.19;4926364;28;119545;-85
2021/12/17 03:38:32;;;;;;;16.48;7.60;;;;;;;11.19;66.24;103422.44;4932660;28;122200;-86
2021/12/17 03:41:10;;;;;;;15.05;7.00;;;;;;;11.05;66.43;103396.47;4926651;28;122773;-86
2021/12/17 03:43:43;;;;;;;11.80;5.80;;;;;;;11.16;66.03;103412.22;4909919;28;119974;-85
2021/12/17 03:46:09;;;;;;;14.10;6.80;;;;;;;11.18;66.13;103421.66;4912563;28;121961;-86
2021/12/17 03:48:38;;;;;;;12.63;6.32;;;;;;;11.14;66.40;103423.59;4926473;28;122502;-85
2021/12/17 03:51:11;;;;;;;12.55;5.60;;;;;;;11.11;66.21;103427.09;4894387;28;119972;-87
2021/12/17 03:53:37;;;;;;;11.32;6.00;;;;;;;11.12;66.41;103441.63;4915866;28;119643;-85
2021/12/17 03:56:03;;;;;;;9.10;5.35;;;;;;;11.08;66.14;103431.41;4913739;28;122627;-86
2021/12/17 03:58:29;;;;;;;11.73;5.55;;;;;;;11.03;66.54;103428.25;4911698;28;121499;-84
2021/12/17 04:00:54;;;;;;;14.65;6.55;;;;;;;11.00;66.53;103418.03;4891473;28;122999;-84
2021/12/17 04:03:25;;;;;;;9.85;5.80;;;;;;;11.04;66.43;103429.84;4926886;28;119651;-84
2021/12/17 04:05:57;;;;;;;11.45;5.90;;;;;;;11.02;66.55;103424.72;4925917;28;119927;-86
2021/12/17 04:08:41;;;;;;;11.68;5.35;;;;;;;11.08;66.33;103430.63;4921091;28;120457;-88
2021/12/17 04:11:30;;;;;;;10.95;5.43;;;;;;;11.03;66.29;103431.00;4938805;28;120411;-85
2021/12/17 04:14:01;;;;;;;13.32;5.80;;;;;;;11.07;66.23;103438.06;4932112;28;121788;-87
2021/12/17 04:16:40;;;;;;;10.60;5.15;;;;;;;11.04;66.42;103429.84;4910235;28;123040;-87
2021/12/17 04:19:05;;;;;;;8.77;4.85;;;;;;;10.99;66.13;103416.47;4916290;28;120419;-86
2021/12/17 04:21:32;;;;;;;10.00;5.18;;;;;;;10.99;66.51;103422.75;4914936;28;123650;-85
2021/12/17 04:23:58;;;;;;;10.93;5.68;;;;;;;10.90;66.52;103408.59;4931191;28;119542;-86
2021/12/17 04:26:25;;;;;;;8.85;5.07;;;;;;;11.00;66.61;103418.84;4912422;28;122075;-86
2021/12/17 04:29:00;;;;;;;9.35;5.88;;;;;;;10.97;66.70;103407.84;4914706;28;123030;-85
2021/12/17 04:31:37;;;;;;;9.68;5.78;;;;;;;11.02;66.86;103418.44;4930301;28;119898;-87
2021/12/17 04:34:02;;;;;;;10.48;6.22;;;;;;;10.92;67.05;103409.00;4931486;28;126582;-87
2021/12/17 04:36:34;;;;;;;12.40;6.95;;;;;;;11.04;66.85;103438.06;4911982;28;123806;-84
2021/12/17 04:39:05;;;;;;;;;;;;;;;11.02;66.64;103430.22;4914124;28;119632;-86
2021/12/17 04:41:40;;;;;;;12.32;7.70;;;;;;;10.97;66.70;103424.31;4950169;28;119810;-86
2021/12/17 04:44:16;;;;;;;14.18;8.00;;;;;;;10.89;66.62;103407.03;4913365;28;120397;-85
2021/12/17 04:47:03;;;;;;;12.48;7.68;;;;;;;10.97;66.79;103414.13;4923555;28;119997;-87
2021/12/17 04:58:01;;;;;;;10.63;7.50;;;;;;;10.87;67.09;103387.38;4929633;28;122105;-85
2021/12/17 05:00:30;;;;;;;11.48;7.95;;;;;;;10.93;67.21;103385.06;4947741;28;119953;-86
2021/12/17 05:03:12;;;;;;;8.95;5.80;;;;;;;10.88;67.08;103377.97;4914685;28;122188;-87
2021/12/17 05:05:40;;;;;;;7.63;4.50;;;;;;;10.90;66.94;103378.41;4917506;28;123964;-86
2021/12/17 05:08:18;;;;;;;11.10;5.50;;;;;;;11.01;67.19;103405.88;4930896;28;119691;-86
2021/12/17 05:11:12;;;;;;;9.13;6.03;;;;;;;10.97;66.92;103405.09;4914506;28;122645;-87
2021/12/17 05:19:15;;;;;;;8.18;6.03;;;;;;;10.93;67.23;103407.81;4943400;28;120453;-81
2021/12/17 05:21:42;;;;;;;10.38;6.00;;;;;;;10.96;67.47;103407.06;4948708;28;120749;-86
2021/12/17 05:24:08;;;;;;;8.88;5.80;;;;;;;11.06;67.45;103420.03;4929747;28;119882;-86
2021/12/17 05:26:34;;;;;;;11.18;6.28;;;;;;;11.08;67.45;103425.91;4929834;28;123099;-85
2021/12/17 05:29:00;;;;;;;10.93;5.95;;;;;;;11.10;67.27;103414.53;4934013;28;121784;-86
2021/12/17 05:31:31;;;;;;;8.65;5.85;;;;;;;11.14;67.45;103417.31;4912442;28;122480;-85
2021/12/17 05:33:58;;;;;;;9.40;5.78;;;;;;;11.08;67.97;103414.13;4929973;28;119765;-84
2021/12/17 05:36:32;;;;;;;9.27;5.68;;;;;;;11.15;67.54;103429.88;4913001;28;122390;-87
2021/12/17 05:39:10;;;;;;;8.55;5.47;;;;;;;11.16;67.73;103420.47;4912191;28;123664;-83
2021/12/17 05:41:39;;;;;;;7.18;4.72;;;;;;;11.24;67.81;103417.34;4928622;28;120171;-86
2021/12/17 05:44:25;;;;;;;6.28;4.50;;;;;;;11.21;67.57;103406.34;4931045;28;119867;-85
2021/12/17 05:46:51;;;;;;;5.85;3.58;;;;;;;11.23;67.53;103401.25;4945036;28;119857;-85
2021/12/17 05:49:28;;;;;;;4.43;2.90;;;;;;;11.18;67.33;103407.13;4934535;28;119921;-85
2021/12/17 05:51:57;;;;;;;5.78;2.88;;;;;;;11.18;67.24;103407.91;4943504;28;120158;-86
2021/12/17 05:54:24;;;;;;;3.67;2.22;;;;;;;11.19;67.47;103414.19;4915725;28;119623;-86
2021/12/17 05:56:51;;;;;;;4.07;2.70;;;;;;;11.16;67.42;103423.22;4897448;28;122442;-86
2021/12/17 05:59:18;;;;;;;4.53;2.60;;;;;;;11.26;67.87;103430.69;4912320;28;122663;-84
2021/12/17 06:01:46;;;;;;;2.80;2.10;;;;;;;11.17;67.49;103408.31;4913917;28;121044;-87
2021/12/17 06:04:12;;;;;;;3.50;1.92;;;;;;;11.19;66.92;103419.69;4914551;28;121617;-87
2021/12/17 06:07:03;;;;;;;2.85;1.80;;;;;;;11.19;67.07;103425.19;4943168;28;123956;-85
2021/12/17 06:09:30;;;;;;;3.10;1.90;;;;;;;11.14;66.98;103417.31;4929664;28;119962;-85
2021/12/17 06:11:55;;;;;;;3.67;1.80;;;;;;;11.16;66.91;103415.75;4930131;28;123882;-88
2021/12/17 06:14:24;;;;;;;2.05;1.80;;;;;;;11.23;67.09;103421.25;4929825;28;119672;-87
2021/12/17 06:16:49;;;;;;;3.38;2.00;;;;;;;11.15;67.19;103410.66;4928452;28;122169;-86
2021/12/17 06:19:35;;;;;;;2.20;1.70;;;;;;;11.25;67.24;103426.38;4926589;28;122689;-85
2021/12/17 06:22:01;;;;;;;2.40;1.80;;;;;;;11.21;67.25;103429.13;4912248;28;119670;-85
2021/12/17 06:24:28;;;;;;;2.33;1.58;;;;;;;11.22;67.60;103430.69;4928854;28;122362;-85
2021/12/17 06:26:58;;;;;;;2.85;1.50;;;;;;;11.24;67.19;103433.81;4905402;28;123575;-84
2021/12/17 06:29:27;;;;;;;1.90;1.40;;;;;;;11.27;67.59;103437.75;4929302;28;120444;-85
2021/12/17 06:32:00;;;;;;;1.95;1.50;;;;;;;11.32;67.23;103443.66;4911241;28;122460;-85
2021/12/17 06:34:26;;;;;;;2.97;1.75;;;;;;;11.25;66.70;103432.66;4932125;28;119818;-86
2021/12/17 06:36:52;;;;;;;2.08;1.45;;;;;;;11.22;67.08;103436.19;4927368;28;119715;-86
2021/12/17 06:39:18;;;;;;;2.05;1.30;;;;;;;11.26;66.76;103447.19;4910324;28;120452;-85
2021/12/17 06:41:44;;;;;;;2.10;1.70;;;;;;;11.23;66.72;103437.75;4926366;28;119913;-86
2021/12/17 06:44:12;;;;;;;3.03;1.70;;;;;;;11.27;66.87;103454.25;4924242;28;122341;-85
2021/12/17 06:49:43;;;;;;;4.80;1.92;;;;;;;11.19;67.08;103444.41;4944766;28;119544;-86
2021/12/17 06:56:08;;;;;;;;;;;;;;;;;;;;;
2021/12/17 07:10:27;;;;;;;;;;;;;;;;;;;;;
2021/12/17 07:21:20;;;;;;;3.33;1.90;;;;;;;11.26;67.21;103460.91;4909031;28;119615;-86
2021/12/17 07:34:06;;;;;;;4.97;3.28;;;;;;;11.42;67.85;103477.88;4942317;28;120509;-88
2021/12/17 07:39:28;;;;;;;7.43;3.13;;;;;;;11.33;67.76;103455.44;4903627;28;120595;-86
2021/12/17 07:42:05;;;;;;;6.93;3.90;;;;;;;11.44;67.73;103481.00;4933145;28;120388;-86
2021/12/17 07:44:37;;;;;;;6.63;3.75;;;;;;;11.36;67.52;103465.69;4923179;28;122480;-87
2021/12/17 07:47:24;;;;;;;6.20;4.13;;;;;;;11.45;67.85;103477.09;4913296;28;122139;-86
2021/12/17 07:50:08;;;;;;;5.43;4.05;;;;;;;11.36;67.70;103468.44;4928046;28;119582;-86
2021/12/17 07:52:43;;;;;;;7.65;4.60;;;;;;;11.44;67.88;103460.97;4928582;28;121320;-83
2021/12/17 07:55:09;;;;;;;7.00;4.22;;;;;;;11.48;67.53;103459.81;4928715;28;121704;-84
2021/12/17 07:57:37;;;;;;;6.30;4.35;;;;;;;11.46;68.21;103456.66;4891729;28;122481;-86
2021/12/17 08:00:07;;;;;;;6.75;4.60;;;;;;;11.46;68.09;103453.91;4931109;28;122020;-83
2021/12/17 08:02:41;;;;;;;7.28;4.70;;;;;;;11.55;68.04;103473.56;4899811;28;120716;-87
2021/12/17 08:05:26;;;;;;;8.40;4.90;;;;;;;11.49;67.98;103464.13;4919396;28;120656;-87
2021/12/17 08:07:55;;;;;;;6.70;4.70;;;;;;;11.62;68.09;103481.84;4912858;28;122903;-85
2021/12/17 08:10:21;;;;;;;7.70;5.18;;;;;;;11.57;68.13;103473.97;4908673;28;120757;-86
2021/12/17 08:12:46;;;;;;;9.77;5.65;;;;;;;11.65;67.81;103481.06;4941374;28;123134;-86
2021/12/17 08:15:14;;;;;;;7.05;4.95;;;;;;;11.63;68.13;103471.63;4894985;28;119622;-84
2021/12/17 08:18:09;;;;;;;7.03;4.57;;;;;;;11.68;67.79;103472.03;4913484;28;122266;-87
2021/12/17 08:28:50;;;;;;;8.70;5.22;;;;;;;11.79;67.92;103468.53;4942767;28;120962;-87
2021/12/17 08:31:16;;;;;;;8.18;5.57;;;;;;;11.81;68.21;103468.91;4945449;28;120602;-86
2021/12/17 08:33:42;;;;;;;11.13;5.55;;;;;;;11.78;68.30;103467.75;4908947;28;123203;-87
2021/12/17 08:36:07;;;;;;;10.23;5.38;;;;;;;11.90;68.01;103472.09;4910240;28;119670;-86
2021/12/17 08:38:35;;;;;;;7.88;5.05;;;;;;;11.91;67.81;103465.41;4907989;28;120531;-88
2021/12/17 08:41:27;;;;;;;10.48;5.45;;;;;;;11.89;67.83;103456.78;4925670;28;120392;-86
2021/12/17 08:43:54;;;;;;;8.02;5.15;;;;;;;11.93;67.98;103447.34;4926778;28;120057;-85
2021/12/17 08:46:20;;;;;;;7.78;4.85;;;;;;;11.86;68.02;103439.09;4894270;28;122286;-87
2021/12/17 08:48:59;;;;;;;8.90;4.72;;;;;;;12.02;68.13;103451.66;4923856;28;121384;-86
2021/12/17 08:51:38;;;;;;;8.20;4.85;;;;;;;12.11;67.90;103458.34;4927688;28;119966;-86
2021/12/17 08:54:04;;;;;;;6.10;4.82;;;;;;;12.13;67.86;103461.50;4928423;28;121362;-86
2021/12/17 08:56:35;;;;;;;7.22;4.88;;;;;;;12.20;67.47;103469.75;4909361;28;121335;-86
2021/12/17 08:59:03;;;;;;;8.82;5.80;;;;;;;12.23;67.88;103471.69;4932655;28;120222;-86
2021/12/17 09:01:37;;;;;;;10.95;5.88;;;;;;;12.28;67.76;103474.03;4929796;28;120403;-86
2021/12/17 09:04:03;;;;;;;96.07;12.65;;;;;;;12.33;67.60;103466.59;4929268;28;120216;-84
2021/12/17 09:06:38;;;;;;;9.15;5.82;;;;;;;12.34;67.48;103457.16;4927111;28;122086;-84
2021/12/17 09:09:04;;;;;;;11.75;5.88;;;;;;;12.39;67.82;103462.25;4929876;28;122915;-84
2021/12/17 09:11:34;;;;;;;7.47;5.40;;;;;;;12.34;67.59;103454.41;4909888;28;119652;-86
2021/12/17 09:14:06;;;;;;;6.60;5.15;;;;;;;12.41;67.84;103459.88;4912535;28;121840;-85
2021/12/17 09:16:46;;;;;;;7.88;5.32;;;;;;;12.43;67.45;103446.50;4931151;28;120568;-86
2021/12/17 09:19:12;;;;;;;9.13;5.82;;;;;;;12.41;67.66;103452.41;4943458;28;120439;-86
2021/12/17 09:21:43;;;;;;;8.60;4.88;;;;;;;12.43;67.53;103452.03;4909752;28;120142;-84
2021/12/17 09:24:14;;;;;;;5.88;5.07;;;;;;;12.43;67.41;103441.00;4928734;28;121058;-85
2021/12/17 09:27:14;;;;;;;8.30;6.30;;;;;;;12.44;67.64;103448.09;4925748;28;123050;-86
2021/12/17 09:30:16;;;;;;;7.38;5.38;;;;;;;12.56;67.82;103461.44;4913820;28;121071;-84
2021/12/17 09:32:42;;;;;;;8.07;5.82;;;;;;;12.60;67.41;103463.00;4944656;28;120362;-81
2021/12/17 09:35:09;;;;;;;7.22;5.95;;;;;;;12.64;68.24;103451.97;4910552;28;121817;-80
2021/12/17 09:37:35;;;;;;;8.52;5.40;;;;;;;12.67;68.01;103462.19;4925448;28;123273;-80
2021/12/17 09:40:04;;;;;;;6.80;5.30;;;;;;;12.69;67.62;103454.31;4933267;28;120216;-82
2021/12/17 09:42:30;;;;;;;6.50;5.47;;;;;;;12.70;67.85;103444.09;4921521;28;124174;-80
2021/12/17 09:44:55;;;;;;;8.73;5.35;;;;;;;12.72;67.81;103448.00;4907065;28;121210;-81
2021/12/17 09:47:21;;;;;;;8.93;5.68;;;;;;;12.73;67.99;103449.59;4922043;28;122277;-79
2021/12/17 09:49:47;;;;;;;8.35;6.03;;;;;;;12.75;67.72;103444.47;4905261;28;122640;-79
2021/12/17 09:52:15;;;;;;;7.47;5.15;;;;;;;12.73;67.86;103441.31;4922471;28;120761;-79
2021/12/17 09:54:41;;;;;;;8.10;5.57;;;;;;;12.74;68.08;103440.13;4891527;28;123137;-80
2021/12/17 09:57:06;;;;;;;7.22;5.53;;;;;;;12.80;68.14;103455.09;4920492;28;123149;-80
2021/12/17 09:59:32;;;;;;;7.00;5.68;;;;;;;12.81;67.90;103448.41;4924087;28;120353;-79
2021/12/17 10:01:58;;;;;;;6.22;5.25;;;;;;;12.85;67.54;103443.66;4924499;28;122288;-80
2021/12/17 10:04:29;;;;;;;8.75;5.53;;;;;;;12.91;67.90;103458.56;4906884;28;121093;-79
2021/12/17 10:07:27;;;;;;;8.73;5.05;;;;;;;12.96;67.94;103453.84;4922749;28;122707;-80
2021/12/17 10:09:56;;;;;;;8.52;5.50;;;;;;;12.97;67.99;103455.41;4923331;28;121103;-80
2021/12/17 10:12:26;;;;;;;9.00;5.50;;;;;;;12.96;68.19;103457.38;4921581;28;120118;-80
2021/12/17 10:15:09;;;;;;;6.78;5.07;;;;;;;12.98;67.90;103449.50;4923197;28;122266;-79
2021/12/17 10:17:48;;;;;;;7.47;5.63;;;;;;;13.05;68.36;103451.44;4920291;28;120233;-79
2021/12/17 10:20:18;;;;;;;7.40;5.10;;;;;;;13.05;67.92;103451.44;4905219;28;119823;-81
2021/12/17 10:22:53;;;;;;;6.13;4.65;;;;;;;13.01;68.33;103434.13;4925559;28;120194;-80
2021/12/17 10:25:21;;;;;;;5.25;4.15;;;;;;;13.11;68.27;103447.88;4921883;28;121367;-81
2021/12/17 10:27:46;;;;;;;5.68;4.18;;;;;;;13.06;67.96;103437.28;4921428;28;120263;-80
2021/12/17 10:30:19;;;;;;;6.05;3.92;;;;;;;13.08;68.54;103436.88;4936108;28;124051;-80
2021/12/17 10:32:56;;;;;;;5.32;3.70;;;;;;;13.14;68.58;103444.31;4903698;28;120180;-80
2021/12/17 10:35:29;;;;;;;5.80;3.88;;;;;;;13.06;69.09;103423.50;4920369;28;122327;-81
2021/12/17 10:38:03;;;;;;;4.57;3.22;;;;;;;13.20;68.43;103439.19;4889630;28;122689;-80
2021/12/17 10:40:36;;;;;;;5.53;3.33;;;;;;;13.14;68.75;103419.50;4921550;28;120506;-81
2021/12/17 10:43:18;;;;;;;6.40;3.97;;;;;;;13.24;68.55;103412.38;4922588;28;122614;-81
2021/12/17 10:46:00;;;;;;;5.18;3.40;;;;;;;13.25;68.55;103413.97;4940787;28;122263;-81
2021/12/17 10:48:32;;;;;;;3.45;2.60;;;;;;;13.19;68.92;103412.81;4922168;28;120122;-79
2021/12/17 10:51:14;;;;;;;3.25;2.30;;;;;;;13.23;68.14;103421.84;4920010;28;122727;-80
2021/12/17 10:53:54;;;;;;;3.10;2.30;;;;;;;13.20;68.57;103425.41;4923927;28;119771;-79
2021/12/17 10:56:22;;;;;;;3.50;2.10;;;;;;;13.19;68.24;103423.84;4920305;28;122424;-81
2021/12/17 10:58:53;;;;;;;3.22;1.77;;;;;;;13.20;68.08;103428.16;4903920;28;123069;-79
2021/12/17 11:01:28;;;;;;;2.03;1.75;;;;;;;13.15;68.03;103420.28;4920789;28;121000;-81
2021/12/17 11:04:04;;;;;;;2.50;1.92;;;;;;;13.23;68.12;103426.56;4936767;28;119854;-79
2021/12/17 11:06:51;;;;;;;4.28;2.13;;;;;;;13.23;67.63;103421.06;4920204;28;123632;-79
2021/12/17 11:09:44;;;;;;;5.13;2.30;;;;;;;13.25;67.68;103425.00;4925127;28;120183;-81
2021/12/17 11:12:14;;;;;;;4.85;2.22;;;;;;;13.22;67.80;103414.75;4920774;28;121504;-79
2021/12/17 11:14:46;;;;;;;3.08;2.08;;;;;;;13.23;68.20;103416.31;4921171;28;121193;-80
2021/12/17 11:17:14;;;;;;;3.05;2.00;;;;;;;13.24;67.68;103422.63;4937016;28;122297;-80
2021/12/17 11:19:42;;;;;;;2.75;2.00;;;;;;;13.21;67.44;103426.97;4916308;28;123322;-79
2021/12/17 11:22:08;;;;;;;2.92;2.33;;;;;;;13.18;67.75;103427.78;4899748;28;120623;-80
2021/12/17 11:24:38;;;;;;;3.90;2.30;;;;;;;13.16;67.64;103430.13;4938593;28;122749;-80
2021/12/17 11:27:05;;;;;;;3.85;1.95;;;;;;;13.19;67.17;103449.44;4922097;28;121928;-80
2021/12/17 11:29:34;;;;;;;3.38;2.00;;;;;;;13.08;67.18;103431.34;4890053;28;121694;-79
2021/12/17 11:32:05;;;;;;;2.15;1.95;;;;;;;13.09;67.37;103441.97;4936002;28;120904;-80
2021/12/17 11:34:33;;;;;;;2.55;1.83;;;;;;;13.01;67.27;103442.38;4924204;28;120309;-80
2021/12/17 11:37:03;;;;;;;2.45;2.00;;;;;;;13.05;67.76;103440.44;4933835;28;121105;-80
2021/12/17 11:39:33;;;;;;;3.08;1.80;;;;;;;13.07;67.57;103436.09;4904568;28;124804;-80
2021/12/17 11:42:28;;;;;;;3.08;1.92;;;;;;;13.10;67.63;103428.97;4888651;28;122213;-79
2021/12/17 11:47:42;;;;;;;3.03;1.98;;;;;;;13.13;67.45;103442.75;4919325;28;122683;-79
2021/12/17 11:50:16;;;;;;;2.67;1.90;;;;;;;13.13;67.75;103447.47;4903701;28;120097;-79
2021/12/17 11:52:45;;;;;;;2.13;1.50;;;;;;;13.16;67.28;103452.19;4922124;28;121800;-78
2021/12/17 11:55:20;;;;;;;2.20;1.60;;;;;;;13.13;66.64;103461.25;4922162;28;122008;-79
2021/12/17 11:57:47;;;;;;;1.90;1.25;;;;;;;13.00;66.59;103460.13;4935773;28;121780;-80
2021/12/17 12:00:21;;;;;;;1.70;1.30;;;;;;;12.94;66.56;103454.22;4908460;28;119850;-79
2021/12/17 12:02:49;;;;;;;2.28;1.30;;;;;;;12.95;66.83;103457.78;4915573;28;122590;-78
2021/12/17 12:05:38;;;;;;;1.67;1.20;;;;;;;12.91;66.71;103460.56;4919417;28;121907;-80
2021/12/17 12:08:26;;;;;;;1.50;1.30;;;;;;;12.91;66.90;103472.34;4903837;28;121593;-80
2021/12/17 12:11:11;;;;;;;1.65;1.40;;;;;;;12.88;67.32;103464.09;4917137;28;119791;-79
2021/12/17 12:13:41;;;;;;;1.50;1.30;;;;;;;12.90;66.83;103459.75;4935008;28;119868;-80
2021/12/17 12:16:10;;;;;;;1.80;1.60;;;;;;;12.89;67.85;103457.41;4914367;28;120260;-80
2021/12/17 12:18:42;;;;;;;2.17;1.50;;;;;;;12.95;67.41;103458.56;4905161;28;119887;-79
2021/12/17 12:21:09;;;;;;;1.90;1.33;;;;;;;12.96;67.55;103459.34;4917267;28;123653;-82
2021/12/17 12:23:38;;;;;;;2.53;1.63;;;;;;;12.96;67.26;103446.34;4925424;28;121602;-80
2021/12/17 12:26:04;;;;;;;2.63;1.55;;;;;;;12.95;67.17;103453.06;4937184;28;119927;-80
2021/12/17 12:28:45;;;;;;;2.67;1.50;;;;;;;12.91;67.14;103442.03;4894137;28;123220;-80
2021/12/17 12:31:33;;;;;;;1.98;1.67;;;;;;;12.93;66.79;103444.41;4905073;28;124559;-79
2021/12/17 12:34:08;;;;;;;2.03;1.80;;;;;;;12.90;66.86;103440.47;4912861;28;122345;-80
2021/12/17 12:36:43;;;;;;;2.75;1.85;;;;;;;12.88;66.79;103434.59;4903134;28;122670;-80
2021/12/17 12:39:30;;;;;;;2.30;1.80;;;;;;;12.89;67.00;103436.16;4908902;28;119911;-79
2021/12/17 12:42:12;;;;;;;2.03;1.55;;;;;;;12.75;66.82;103408.66;4920832;28;119930;-80
2021/12/17 12:44:44;;;;;;;2.10;1.70;;;;;;;12.94;66.95;103431.41;4921963;28;122278;-79
2021/12/17 12:47:31;;;;;;;2.53;1.67;;;;;;;12.94;67.29;103434.16;4935413;28;120454;-80
2021/12/17 12:50:03;;;;;;;3.60;1.60;;;;;;;12.90;67.15;103431.44;4916206;28;124798;-80
2021/12/17 12:52:31;;;;;;;2.60;1.58;;;;;;;12.90;67.11;103426.69;4922815;28;122349;-80
2021/12/17 12:55:04;;;;;;;1.73;1.42;;;;;;;12.89;67.16;103425.13;4936394;28;121543;-79
2021/12/17 12:57:35;;;;;;;2.08;1.50;;;;;;;12.88;66.81;103422.78;4919079;28;121738;-80
2021/12/17 13:00:07;;;;;;;1.77;1.42;;;;;;;12.84;66.75;103433.81;4936751;28;119995;-80
2021/12/17 13:02:33;;;;;;;1.92;1.30;;;;;;;12.83;66.75;103437.75;4922748;28;120032;-79
2021/12/17 13:05:06;;;;;;;1.65;1.20;;;;;;;12.80;66.93;103438.56;4922707;28;119987;-81
2021/12/17 13:07:37;;;;;;;1.33;1.13;;;;;;;12.79;66.84;103442.50;4922985;28;120155;-79
2021/12/17 13:10:12;;;;;;;1.40;1.23;;;;;;;12.78;66.75;103451.94;4922524;28;122964;-79
2021/12/17 13:12:37;;;;;;;2.55;1.15;;;;;;;12.78;66.82;103440.94;4924828;28;121557;-79
2021/12/17 13:15:39;;;;;;;1.60;1.20;;;;;;;12.77;67.02;103438.53;4924576;28;122203;-78
2021/12/17 13:23:52;;;;;;;1.65;1.20;;;;;;;12.70;66.83;103442.13;4916808;28;120894;-78
2021/12/17 13:26:20;;;;;;;;;;;;;;;12.68;67.11;103440.94;4919932;28;120873;-79
2021/12/17 13:28:52;;;;;;;1.58;1.33;;;;;;;12.68;67.20;103433.47;4919795;28;120512;-79
2021/12/17 13:31:39;;;;;;;2.67;1.50;;;;;;;12.70;67.21;103433.84;4937037;28;121095;-79
2021/12/17 13:34:34;;;;;;;1.40;1.17;;;;;;;12.73;66.91;103433.06;4926256;28;120699;-79
2021/12/17 13:37:11;;;;;;;1.20;1.10;;;;;;;12.73;66.84;103433.06;4923016;28;120386;-78
2021/12/17 13:39:39;;;;;;;1.92;1.15;;;;;;;12.73;66.82;103427.53;4926242;28;122740;-79
2021/12/17 13:42:06;;;;;;;1.30;1.20;;;;;;;12.73;67.13;103435.81;4921667;28;121089;-78
2021/12/17 13:44:34;;;;;;;1.50;1.23;;;;;;;12.75;66.81;103436.19;4924782;28;121976;-78
2021/12/17 13:47:07;;;;;;;2.67;1.33;;;;;;;12.77;66.79;103444.84;4933093;28;122831;-78
2021/12/17 13:49:33;;;;;;;2.97;1.98;;;;;;;12.75;66.81;103441.69;4926868;28;124449;-79
2021/12/17 13:51:59;;;;;;;1.75;1.50;;;;;;;12.77;67.13;103444.84;4923053;28;122917;-79
2021/12/17 13:54:25;;;;;;;2.28;1.20;;;;;;;12.75;67.12;103449.97;4926203;28;119892;-78
2021/12/17 13:57:02;;;;;;;1.52;1.42;;;;;;;12.74;66.98;103442.88;4928449;28;121785;-78
2021/12/17 13:59:33;;;;;;;1.98;1.55;;;;;;;12.67;67.26;103434.66;4923921;28;120992;-78
2021/12/17 14:02:26;;;;;;;1.60;1.40;;;;;;;12.76;67.02;103440.53;4925987;28;122070;-78
2021/12/17 14:05:01;;;;;;;1.90;1.40;;;;;;;12.77;67.14;103435.78;4941079;28;121181;-79
2021/12/17 14:07:29;;;;;;;1.55;1.23;;;;;;;12.67;66.93;103423.63;4928117;28;120219;-80
2021/12/17 14:09:57;;;;;;;1.30;1.20;;;;;;;12.74;67.02;103429.13;4941452;28;119709;-80
2021/12/17 14:12:33;;;;;;;1.40;1.30;;;;;;;12.73;66.80;103426.75;4945407;28;119589;-80
2021/12/17 14:15:02;;;;;;;2.28;1.60;;;;;;;12.62;67.18;103415.78;4928107;28;122143;-80
2021/12/17 14:17:35;;;;;;;1.40;1.20;;;;;;;12.68;67.29;103433.47;4942774;28;121451;-80
2021/12/17 14:20:12;;;;;;;1.35;1.10;;;;;;;12.58;66.75;103442.56;4928183;28;120453;-80